Weather observations for the past three days for
Chesterfield County Airport
Imperial (Metric)
Date Time (edt) Wind (mph) Vis. (mi.) Weather Sky Cond. Temperature (ºF) Relative Humidity Wind Chill (°F) Heat Index (°F) Pressure Precipitation (in)
Air Dwpt 6 hour altimeter (in) sea level (mb) 1 hr 3 hr 6 hr
Max. Min.
06 03:56 S 9 G 21 10.00 A Few Clouds FEW120 64 55.9 75% 29.91 1013.5
06 02:56 S 12 G 18 10.00 Fair CLR 64.9 55.9 73% 29.91 1013.8
06 01:56 S 14 G 21 10.00 Fair CLR 66 55.9 75 66 70% 29.92 1014.0
06 00:56 S 14 G 18 10.00 Fair CLR 66.9 57 71% 29.93 1014.5
05 23:56 S 14 10.00 Fair CLR 69.1 55.9 63% 29.94 1014.7
05 22:56 S 10 10.00 Fair CLR 70 54 57% 29.93 1014.6
05 21:56 S 9 10.00 Fair CLR 72 53.1 52% 29.93 1014.5
05 20:56 S 9 10.00 Fair CLR 73.9 52 46% 29.91 1013.8
05 19:56 S 10 G 18 10.00 Fair CLR 75 51.1 84 75 43% 78 29.9 1013.5
05 18:56 S 9 G 18 10.00 Fair CLR 78.1 51.1 39% 79 29.9 1013.3
05 17:56 S 18 G 25 10.00 Fair CLR 81 50 34% 80 29.89 1013.0
05 16:56 S 13 G 18 10.00 Fair CLR 82.9 46.9 28% 81 29.89 1013.1
05 15:56 SW 17 G 28 10.00 Fair CLR 84 44.1 25% 82 29.9 1013.2
05 14:56 S 17 G 22 10.00 Fair CLR 84 44.1 25% 82 29.92 1014.2
05 13:56 SW 14 G 24 10.00 Fair CLR 82.9 46.9 82.9 61 28% 81 29.94 1014.8
05 12:56 SW 13 G 22 10.00 Fair CLR 81 51.1 35% 80 29.96 1015.3
05 11:56 S 12 G 17 10.00 Fair CLR 77 54 45% 78 29.98 1016.3
05 10:56 S 9 10.00 Fair CLR 73.9 53.1 48% 29.98 1016.2
05 09:56 Vrbl 7 10.00 Fair CLR 70 53.1 55% 29.98 1016.1
05 08:56 SW 6 10.00 Fair CLR 64.9 52 63% 29.99 1016.5
05 07:56 SW 6 10.00 Fair CLR 61 51.1 61 54 70% 29.98 1016.1
05 06:56 S 6 10.00 Fair CLR 55.9 51.1 84% 29.97 1015.7
05 05:56 S 5 10.00 Fair CLR 55.9 50 81% 29.96 1015.5
05 04:56 S 6 10.00 Fair CLR 59 50 72% 29.95 1015.1
05 03:56 S 7 10.00 Fair CLR 60.1 50 70% 29.95 1015.0
05 02:56 S 7 10.00 Fair CLR 60.1 50 70% 29.94 1014.8
05 01:56 S 7 10.00 Fair CLR 61 48 71.1 61 63% 29.94 1014.7
05 00:56 S 9 10.00 Fair CLR 61 46 58% 29.94 1014.7
04 23:56 S 7 10.00 Fair CLR 63 46 54% 29.93 1014.3
04 22:56 S 5 9.00 Fair CLR 61 46 58% 29.92 1014.1
04 21:56 S 3 10.00 Fair CLR 64 46 52% 29.92 1014.0
04 20:56 S 3 10.00 Partly Cloudy SCT110 68 46 45% 29.9 1013.4
04 19:56 Calm 10.00 Fair CLR 71.1 43 79 71.1 36% 29.9 1013.6
04 18:56 SW 6 10.00 Fair CLR 75 43 32% 77 29.89 1013.2
04 17:56 SW 10 G 18 10.00 Fair CLR 75.9 42.1 30% 77 29.89 1013.0
04 16:56 SW 6 10.00 Fair CLR 75.9 39.9 27% 77 29.89 1013.1
04 15:56 SW 9 10.00 Fair CLR 78.1 39.9 26% 78 29.9 1013.3
04 14:56 SW 9 G 16 10.00 Fair CLR 75.9 41 29% 77 29.93 1014.4
04 13:56 Vrbl 6 10.00 Fair CLR 73 41 73.9 52 32% 29.95 1015.1
04 12:56 W 10 10.00 Fair CLR 73 36 26% 29.97 1015.6
04 11:56 SW 8 10.00 Fair CLR 72 39 30% 29.99 1016.3
04 10:56 Vrbl 6 10.00 Fair CLR 69.1 41 36% 30 1016.9
04 09:56 SW 7 10.00 Fair CLR 64 42.1 45% 30.01 1017.3
04 08:56 SW 7 10.00 Fair CLR 59 41 51% 30.02 1017.6
04 07:56 SW 5 10.00 A Few Clouds FEW110 52 39 52 45 61% 30.02 1017.7
04 06:56 Calm 10.00 Fair CLR 48 37 66% 30.02 1017.7
04 05:56 Calm 10.00 Mostly Cloudy BKN090 48.9 36 61% 30.02 1017.5
04 04:56 S 3 10.00 Mostly Cloudy BKN110 48 37.9 68% 30.02 1017.7
04 03:56 S 3 10.00 Fair CLR 48.9 37 64% 30.03 1018.0
04 02:56 Calm 10.00 Overcast OVC110 46 37.9 73% 30.03 1018.0
04 01:56 S 3 10.00 Partly Cloudy SCT110 45 36 57.9 44.1 71% 30.03 1017.9
04 00:56 Calm 10.00 A Few Clouds FEW120 45 36 71% 30.03 1018.0
03 23:56 S 3 10.00 Fair CLR 45 37 74% 30.02 1017.9
03 22:56 Calm 10.00 Fair CLR 44.1 37 76% 30.02 1017.8
03 21:56 Calm 10.00 Fair CLR 46.9 37 69% 30.02 1017.7
03 20:56 Calm 10.00 Fair CLR 51.1 37 59% 30.02 1017.6
03 19:56 S 3 10.00 Fair CLR 57.9 33.1 64.9 57.9 39% 30 1017.0
03 18:56 W 6 10.00 Fair CLR 62.1 28.9 29% 30 1016.9
03 17:56 W 8 10.00 Fair CLR 64.9 27 24% 30 1016.9
03 16:56 W 13 10.00 Fair CLR 64 28 26% 30 1016.9
03 15:56 SW 7 10.00 Fair CLR 62.1 28 28% 30.01 1017.3
03 14:56 NW 13 G 16 10.00 Fair CLR 63 28.9 28% 30.04 1018.3
03 13:56 W 12 G 20 10.00 Fair CLR 60.1 28.9 61 48 31% 30.05 1018.7
03 12:56 Vrbl 5 10.00 Fair CLR 59 27 29% 30.07 1019.3
03 11:56 NW 14 G 18 10.00 Fair CLR 57 26.1 30% 30.08 1019.8
03 10:56 NW 16 G 21 10.00 Fair CLR 55.9 24.1 29% 30.09 1019.9
03 09:56 NW 12 G 17 10.00 Fair CLR 54 28 37% 30.09 1019.9
03 08:56 NW 12 10.00 Fair CLR 51.1 32 48% 30.08 1019.8
03 07:56 NW 6 10.00 Fair CLR 48 34 52 41 58% 46 30.07 1019.6
03 06:56 NW 3 10.00 Fair CLR 41 34 76% 30.04 1018.6
03 05:56 N 6 10.00 Fair CLR 45 32 61% 42 30.01 1017.4
03 04:56 N 8 10.00 Overcast FEW070 OVC090 48 32 54% 45 29.99 1016.5
Date Time (edt) Wind (mph) Vis. (mi.) Weather Sky Cond. Air Dwpt Max. Min. Relative Humidity Wind Chill (°F) Heat Index (°F) altimeter (in) sea level (mb) 1 hr 3 hr 6 hr
6 hour
Temperature (ºF) Pressure Precipitation (in)